sensor_id;sensor_type;location;lat;lon;timestamp;temperature;humidity
38784;DHT22;24531;45.502;12.238;2022-12-18T00:01:03;8.60;98.90
38784;DHT22;24531;45.502;12.238;2022-12-18T00:03:35;8.60;99.00
38784;DHT22;24531;45.502;12.238;2022-12-18T00:06:01;8.60;99.00
38784;DHT22;24531;45.502;12.238;2022-12-18T00:08:27;8.60;98.90
38784;DHT22;24531;45.502;12.238;2022-12-18T00:10:54;8.50;98.80
38784;DHT22;24531;45.502;12.238;2022-12-18T00:13:19;8.50;98.80
38784;DHT22;24531;45.502;12.238;2022-12-18T00:15:45;8.60;98.90
38784;DHT22;24531;45.502;12.238;2022-12-18T00:18:11;8.60;98.90
38784;DHT22;24531;45.502;12.238;2022-12-18T00:20:37;8.60;98.80
38784;DHT22;24531;45.502;12.238;2022-12-18T00:23:04;8.60;98.80
38784;DHT22;24531;45.502;12.238;2022-12-18T00:25:33;8.60;98.80
38784;DHT22;24531;45.502;12.238;2022-12-18T00:27:59;8.60;98.70
38784;DHT22;24531;45.502;12.238;2022-12-18T00:30:25;8.60;98.70
38784;DHT22;24531;45.502;12.238;2022-12-18T00:32:51;8.60;98.60
38784;DHT22;24531;45.502;12.238;2022-12-18T00:35:19;8.60;98.60
38784;DHT22;24531;45.502;12.238;2022-12-18T00:37:50;8.60;98.60
38784;DHT22;24531;45.502;12.238;2022-12-18T00:40:16;8.60;98.60
38784;DHT22;24531;45.502;12.238;2022-12-18T00:42:42;8.60;98.70
38784;DHT22;24531;45.502;12.238;2022-12-18T00:45:27;8.50;98.60
38784;DHT22;24531;45.502;12.238;2022-12-18T00:47:53;8.50;98.60
38784;DHT22;24531;45.502;12.238;2022-12-18T00:50:20;8.50;98.50
38784;DHT22;24531;45.502;12.238;2022-12-18T00:52:45;8.50;98.50
38784;DHT22;24531;45.502;12.238;2022-12-18T00:55:12;8.50;98.50
38784;DHT22;24531;45.502;12.238;2022-12-18T00:57:44;8.40;98.50
38784;DHT22;24531;45.502;12.238;2022-12-18T01:00:12;8.50;98.60
38784;DHT22;24531;45.502;12.238;2022-12-18T01:02:38;8.50;98.60
38784;DHT22;24531;45.502;12.238;2022-12-18T01:05:04;8.50;98.50
38784;DHT22;24531;45.502;12.238;2022-12-18T01:07:30;8.50;98.50
38784;DHT22;24531;45.502;12.238;2022-12-18T01:09:56;8.40;98.80
38784;DHT22;24531;45.502;12.238;2022-12-18T01:12:21;8.40;98.50
38784;DHT22;24531;45.502;12.238;2022-12-18T01:14:47;8.50;98.50
38784;DHT22;24531;45.502;12.238;2022-12-18T01:17:12;8.40;98.50
38784;DHT22;24531;45.502;12.238;2022-12-18T01:19:38;8.50;98.50
38784;DHT22;24531;45.502;12.238;2022-12-18T01:22:04;8.50;98.50
38784;DHT22;24531;45.502;12.238;2022-12-18T01:24:29;8.60;98.40
38784;DHT22;24531;45.502;12.238;2022-12-18T01:26:55;8.50;98.40
38784;DHT22;24531;45.502;12.238;2022-12-18T01:29:22;8.50;98.30
38784;DHT22;24531;45.502;12.238;2022-12-18T01:31:48;8.50;98.30
38784;DHT22;24531;45.502;12.238;2022-12-18T01:34:14;8.50;98.30
38784;DHT22;24531;45.502;12.238;2022-12-18T01:36:40;8.60;98.30
38784;DHT22;24531;45.502;12.238;2022-12-18T01:39:08;8.50;98.40
38784;DHT22;24531;45.502;12.238;2022-12-18T01:41:35;8.50;98.30
38784;DHT22;24531;45.502;12.238;2022-12-18T01:47:45;8.50;98.20
38784;DHT22;24531;45.502;12.238;2022-12-18T01:53:11;8.50;98.20
38784;DHT22;24531;45.502;12.238;2022-12-18T01:55:46;8.50;98.10
38784;DHT22;24531;45.502;12.238;2022-12-18T01:58:12;8.50;98.10
38784;DHT22;24531;45.502;12.238;2022-12-18T02:00:38;8.40;98.10
38784;DHT22;24531;45.502;12.238;2022-12-18T02:03:04;8.40;98.10
38784;DHT22;24531;45.502;12.238;2022-12-18T02:06:03;8.50;98.00
38784;DHT22;24531;45.502;12.238;2022-12-18T02:11:33;8.40;97.90
38784;DHT22;24531;45.502;12.238;2022-12-18T02:14:14;8.40;97.90
38784;DHT22;24531;45.502;12.238;2022-12-18T02:17:11;8.50;97.90
38784;DHT22;24531;45.502;12.238;2022-12-18T02:28:06;8.30;97.70
38784;DHT22;24531;45.502;12.238;2022-12-18T02:30:36;8.30;97.70
38784;DHT22;24531;45.502;12.238;2022-12-18T02:33:06;8.30;97.60
38784;DHT22;24531;45.502;12.238;2022-12-18T02:35:33;8.20;97.60
38784;DHT22;24531;45.502;12.238;2022-12-18T02:37:59;8.20;97.60
38784;DHT22;24531;45.502;12.238;2022-12-18T02:40:27;8.20;97.60
38784;DHT22;24531;45.502;12.238;2022-12-18T02:42:54;8.20;97.60
38784;DHT22;24531;45.502;12.238;2022-12-18T02:45:19;8.20;97.50
38784;DHT22;24531;45.502;12.238;2022-12-18T02:47:48;8.20;97.50
38784;DHT22;24531;45.502;12.238;2022-12-18T02:50:41;8.10;97.80
38784;DHT22;24531;45.502;12.238;2022-12-18T02:53:27;8.10;97.50
38784;DHT22;24531;45.502;12.238;2022-12-18T02:58:45;8.10;97.40
38784;DHT22;24531;45.502;12.238;2022-12-18T03:01:20;8.10;97.40
38784;DHT22;24531;45.502;12.238;2022-12-18T03:06:25;8.00;97.30
38784;DHT22;24531;45.502;12.238;2022-12-18T03:08:56;8.00;97.40
38784;DHT22;24531;45.502;12.238;2022-12-18T03:11:25;8.00;97.30
38784;DHT22;24531;45.502;12.238;2022-12-18T03:14:13;7.90;97.30
38784;DHT22;24531;45.502;12.238;2022-12-18T03:16:41;7.90;97.30
38784;DHT22;24531;45.502;12.238;2022-12-18T03:19:21;7.90;97.30
38784;DHT22;24531;45.502;12.238;2022-12-18T03:21:54;7.90;97.30
38784;DHT22;24531;45.502;12.238;2022-12-18T03:24:21;7.90;97.30
38784;DHT22;24531;45.502;12.238;2022-12-18T03:26:52;8.00;97.30
38784;DHT22;24531;45.502;12.238;2022-12-18T03:29:25;7.90;97.30
38784;DHT22;24531;45.502;12.238;2022-12-18T03:32:10;7.90;97.40
38784;DHT22;24531;45.502;12.238;2022-12-18T03:34:39;7.90;97.20
38784;DHT22;24531;45.502;12.238;2022-12-18T03:37:06;7.90;97.20
38784;DHT22;24531;45.502;12.238;2022-12-18T03:39:32;7.80;97.20
38784;DHT22;24531;45.502;12.238;2022-12-18T03:42:05;7.80;97.20
38784;DHT22;24531;45.502;12.238;2022-12-18T03:44:52;7.80;97.30
38784;DHT22;24531;45.502;12.238;2022-12-18T03:47:28;7.80;97.20
38784;DHT22;24531;45.502;12.238;2022-12-18T03:55:10;7.70;97.20
38784;DHT22;24531;45.502;12.238;2022-12-18T03:57:37;7.70;97.20
38784;DHT22;24531;45.502;12.238;2022-12-18T04:03:27;7.60;97.30
38784;DHT22;24531;45.502;12.238;2022-12-18T04:06:13;7.60;97.20
38784;DHT22;24531;45.502;12.238;2022-12-18T04:08:39;7.50;97.20
38784;DHT22;24531;45.502;12.238;2022-12-18T04:11:05;7.50;97.30
38784;DHT22;24531;45.502;12.238;2022-12-18T04:14:00;7.50;97.30
38784;DHT22;24531;45.502;12.238;2022-12-18T04:16:27;7.50;97.30
38784;DHT22;24531;45.502;12.238;2022-12-18T04:18:53;7.50;97.30
38784;DHT22;24531;45.502;12.238;2022-12-18T04:21:19;7.50;97.30
38784;DHT22;24531;45.502;12.238;2022-12-18T04:23:45;7.50;97.30
38784;DHT22;24531;45.502;12.238;2022-12-18T04:26:10;7.40;97.30
38784;DHT22;24531;45.502;12.238;2022-12-18T04:28:36;7.40;97.40
38784;DHT22;24531;45.502;12.238;2022-12-18T04:31:01;7.40;97.30
38784;DHT22;24531;45.502;12.238;2022-12-18T04:33:28;7.30;97.30
38784;DHT22;24531;45.502;12.238;2022-12-18T04:35:53;7.40;97.40
38784;DHT22;24531;45.502;12.238;2022-12-18T04:38:19;7.30;97.30
38784;DHT22;24531;45.502;12.238;2022-12-18T04:40:45;7.30;97.40
38784;DHT22;24531;45.502;12.238;2022-12-18T04:43:10;7.30;97.40
38784;DHT22;24531;45.502;12.238;2022-12-18T04:45:36;7.30;97.40
38784;DHT22;24531;45.502;12.238;2022-12-18T04:48:03;7.30;97.40
38784;DHT22;24531;45.502;12.238;2022-12-18T04:50:29;7.30;97.40
38784;DHT22;24531;45.502;12.238;2022-12-18T04:52:55;7.20;97.30
38784;DHT22;24531;45.502;12.238;2022-12-18T04:55:21;7.20;97.40
38784;DHT22;24531;45.502;12.238;2022-12-18T04:57:47;7.20;97.40
38784;DHT22;24531;45.502;12.238;2022-12-18T05:00:13;7.20;97.40
38784;DHT22;24531;45.502;12.238;2022-12-18T05:02:38;7.20;97.40
38784;DHT22;24531;45.502;12.238;2022-12-18T05:05:04;7.20;97.40
38784;DHT22;24531;45.502;12.238;2022-12-18T05:07:30;7.10;97.30
38784;DHT22;24531;45.502;12.238;2022-12-18T05:09:56;7.10;97.40
38784;DHT22;24531;45.502;12.238;2022-12-18T05:12:25;7.10;97.40
38784;DHT22;24531;45.502;12.238;2022-12-18T05:14:50;7.10;97.40
38784;DHT22;24531;45.502;12.238;2022-12-18T05:17:16;7.10;97.40
38784;DHT22;24531;45.502;12.238;2022-12-18T05:19:41;7.10;97.40
38784;DHT22;24531;45.502;12.238;2022-12-18T05:22:08;7.10;97.60
38784;DHT22;24531;45.502;12.238;2022-12-18T05:24:33;7.00;97.40
38784;DHT22;24531;45.502;12.238;2022-12-18T05:26:59;7.00;97.30
38784;DHT22;24531;45.502;12.238;2022-12-18T05:29:25;7.00;97.40
38784;DHT22;24531;45.502;12.238;2022-12-18T05:31:51;7.00;97.40
38784;DHT22;24531;45.502;12.238;2022-12-18T05:34:16;7.00;97.40
38784;DHT22;24531;45.502;12.238;2022-12-18T05:36:42;7.00;97.50
38784;DHT22;24531;45.502;12.238;2022-12-18T05:39:08;7.10;97.50
38784;DHT22;24531;45.502;12.238;2022-12-18T05:41:33;6.90;97.40
38784;DHT22;24531;45.502;12.238;2022-12-18T05:43:59;7.00;97.40
38784;DHT22;24531;45.502;12.238;2022-12-18T05:46:25;7.00;97.40
38784;DHT22;24531;45.502;12.238;2022-12-18T05:48:51;7.00;97.40
38784;DHT22;24531;45.502;12.238;2022-12-18T05:51:19;7.00;97.50
38784;DHT22;24531;45.502;12.238;2022-12-18T05:53:46;7.00;97.40
38784;DHT22;24531;45.502;12.238;2022-12-18T05:56:14;7.00;97.40
38784;DHT22;24531;45.502;12.238;2022-12-18T05:58:40;7.00;97.50
38784;DHT22;24531;45.502;12.238;2022-12-18T06:01:18;7.00;97.50
38784;DHT22;24531;45.502;12.238;2022-12-18T06:03:44;7.10;97.50
38784;DHT22;24531;45.502;12.238;2022-12-18T06:06:19;7.10;97.40
38784;DHT22;24531;45.502;12.238;2022-12-18T06:08:46;7.10;97.50
38784;DHT22;24531;45.502;12.238;2022-12-18T06:11:12;7.10;97.40
38784;DHT22;24531;45.502;12.238;2022-12-18T06:13:38;7.10;97.40
38784;DHT22;24531;45.502;12.238;2022-12-18T06:16:05;7.00;97.40
38784;DHT22;24531;45.502;12.238;2022-12-18T06:18:31;7.00;97.40
38784;DHT22;24531;45.502;12.238;2022-12-18T06:20:57;7.10;97.40
38784;DHT22;24531;45.502;12.238;2022-12-18T06:23:24;7.00;97.40
38784;DHT22;24531;45.502;12.238;2022-12-18T06:25:50;7.10;97.40
38784;DHT22;24531;45.502;12.238;2022-12-18T06:28:16;7.00;97.40
38784;DHT22;24531;45.502;12.238;2022-12-18T06:30:46;7.00;97.30
38784;DHT22;24531;45.502;12.238;2022-12-18T06:33:13;7.10;97.40
38784;DHT22;24531;45.502;12.238;2022-12-18T06:35:38;7.00;97.40
38784;DHT22;24531;45.502;12.238;2022-12-18T06:38:04;7.10;97.40
38784;DHT22;24531;45.502;12.238;2022-12-18T06:40:30;7.10;97.50
38784;DHT22;24531;45.502;12.238;2022-12-18T06:42:55;7.10;97.40
38784;DHT22;24531;45.502;12.238;2022-12-18T06:45:21;7.10;97.40
38784;DHT22;24531;45.502;12.238;2022-12-18T06:47:47;7.10;97.40
38784;DHT22;24531;45.502;12.238;2022-12-18T06:50:13;7.10;97.40
38784;DHT22;24531;45.502;12.238;2022-12-18T06:52:39;7.10;97.40
38784;DHT22;24531;45.502;12.238;2022-12-18T06:55:09;7.10;97.30
38784;DHT22;24531;45.502;12.238;2022-12-18T06:57:35;7.00;97.30
38784;DHT22;24531;45.502;12.238;2022-12-18T07:00:01;7.10;97.40
38784;DHT22;24531;45.502;12.238;2022-12-18T07:02:28;6.90;97.40
38784;DHT22;24531;45.502;12.238;2022-12-18T07:04:53;7.10;97.40
38784;DHT22;24531;45.502;12.238;2022-12-18T07:07:19;7.10;97.30
38784;DHT22;24531;45.502;12.238;2022-12-18T07:09:45;7.10;97.30
38784;DHT22;24531;45.502;12.238;2022-12-18T07:12:10;7.00;97.30
38784;DHT22;24531;45.502;12.238;2022-12-18T07:14:36;7.10;97.40
38784;DHT22;24531;45.502;12.238;2022-12-18T07:17:02;7.10;97.40
38784;DHT22;24531;45.502;12.238;2022-12-18T07:19:27;7.10;97.40
38784;DHT22;24531;45.502;12.238;2022-12-18T07:21:53;7.00;97.40
38784;DHT22;24531;45.502;12.238;2022-12-18T07:24:18;7.00;97.40
38784;DHT22;24531;45.502;12.238;2022-12-18T07:26:47;7.10;97.40
38784;DHT22;24531;45.502;12.238;2022-12-18T07:29:13;7.10;97.50
38784;DHT22;24531;45.502;12.238;2022-12-18T07:31:39;7.10;97.50
38784;DHT22;24531;45.502;12.238;2022-12-18T07:34:04;7.10;97.50
38784;DHT22;24531;45.502;12.238;2022-12-18T07:36:30;7.20;97.60
38784;DHT22;24531;45.502;12.238;2022-12-18T07:38:56;7.30;98.10
38784;DHT22;24531;45.502;12.238;2022-12-18T07:41:22;7.40;97.90
38784;DHT22;24531;45.502;12.238;2022-12-18T07:43:48;7.60;97.90
38784;DHT22;24531;45.502;12.238;2022-12-18T07:46:14;7.60;97.90
38784;DHT22;24531;45.502;12.238;2022-12-18T07:48:43;7.60;97.60
38784;DHT22;24531;45.502;12.238;2022-12-18T07:51:09;7.70;97.70
38784;DHT22;24531;45.502;12.238;2022-12-18T07:53:36;7.70;97.60
38784;DHT22;24531;45.502;12.238;2022-12-18T07:56:04;7.70;97.50
38784;DHT22;24531;45.502;12.238;2022-12-18T07:58:30;7.70;97.50
38784;DHT22;24531;45.502;12.238;2022-12-18T08:01:10;7.80;97.40
38784;DHT22;24531;45.502;12.238;2022-12-18T08:03:36;7.80;97.30
38784;DHT22;24531;45.502;12.238;2022-12-18T08:06:04;7.90;97.30
38784;DHT22;24531;45.502;12.238;2022-12-18T08:08:30;7.90;97.30
38784;DHT22;24531;45.502;12.238;2022-12-18T08:10:57;7.80;97.20
38784;DHT22;24531;45.502;12.238;2022-12-18T08:13:23;7.90;97.20
38784;DHT22;24531;45.502;12.238;2022-12-18T08:15:59;8.00;97.20
38784;DHT22;24531;45.502;12.238;2022-12-18T08:18:25;8.00;97.10
38784;DHT22;24531;45.502;12.238;2022-12-18T08:20:51;8.20;97.10
38784;DHT22;24531;45.502;12.238;2022-12-18T08:23:16;8.30;97.00
38784;DHT22;24531;45.502;12.238;2022-12-18T08:25:42;8.30;97.00
38784;DHT22;24531;45.502;12.238;2022-12-18T08:28:08;8.40;96.80
38784;DHT22;24531;45.502;12.238;2022-12-18T08:30:33;8.50;96.80
38784;DHT22;24531;45.502;12.238;2022-12-18T08:32:59;8.40;96.70
38784;DHT22;24531;45.502;12.238;2022-12-18T08:35:25;8.40;96.70
38784;DHT22;24531;45.502;12.238;2022-12-18T08:37:50;8.40;96.60
38784;DHT22;24531;45.502;12.238;2022-12-18T08:40:16;8.40;96.60
38784;DHT22;24531;45.502;12.238;2022-12-18T08:42:41;8.50;96.60
38784;DHT22;24531;45.502;12.238;2022-12-18T08:45:25;8.50;96.60
38784;DHT22;24531;45.502;12.238;2022-12-18T08:47:51;8.50;96.60
38784;DHT22;24531;45.502;12.238;2022-12-18T08:50:17;8.50;96.50
38784;DHT22;24531;45.502;12.238;2022-12-18T08:52:43;8.60;96.50
38784;DHT22;24531;45.502;12.238;2022-12-18T08:55:09;8.60;96.50
38784;DHT22;24531;45.502;12.238;2022-12-18T08:57:35;8.60;96.40
38784;DHT22;24531;45.502;12.238;2022-12-18T09:00:00;8.60;96.40
38784;DHT22;24531;45.502;12.238;2022-12-18T09:02:26;8.70;96.30
38784;DHT22;24531;45.502;12.238;2022-12-18T09:04:52;8.80;96.30
38784;DHT22;24531;45.502;12.238;2022-12-18T09:07:17;8.70;96.20
38784;DHT22;24531;45.502;12.238;2022-12-18T09:09:43;8.70;96.20
38784;DHT22;24531;45.502;12.238;2022-12-18T09:12:08;8.80;96.20
38784;DHT22;24531;45.502;12.238;2022-12-18T09:31:38;9.10;96.10
38784;DHT22;24531;45.502;12.238;2022-12-18T09:34:04;9.20;95.90
38784;DHT22;24531;45.502;12.238;2022-12-18T09:36:30;9.20;95.90
38784;DHT22;24531;45.502;12.238;2022-12-18T09:38:56;9.20;95.90
38784;DHT22;24531;45.502;12.238;2022-12-18T09:46:43;9.40;95.70
38784;DHT22;24531;45.502;12.238;2022-12-18T09:49:16;9.50;95.70
38784;DHT22;24531;45.502;12.238;2022-12-18T09:52:09;9.60;95.70
38784;DHT22;24531;45.502;12.238;2022-12-18T09:54:39;9.60;95.50
38784;DHT22;24531;45.502;12.238;2022-12-18T09:57:05;9.70;95.50
38784;DHT22;24531;45.502;12.238;2022-12-18T09:59:35;9.80;95.50
38784;DHT22;24531;45.502;12.238;2022-12-18T10:02:17;9.80;95.40
38784;DHT22;24531;45.502;12.238;2022-12-18T10:04:43;9.80;95.40
38784;DHT22;24531;45.502;12.238;2022-12-18T10:07:36;9.90;95.30
38784;DHT22;24531;45.502;12.238;2022-12-18T10:10:07;9.90;95.10
38784;DHT22;24531;45.502;12.238;2022-12-18T10:15:36;10.00;95.00
38784;DHT22;24531;45.502;12.238;2022-12-18T10:20:49;10.10;94.80
38784;DHT22;24531;45.502;12.238;2022-12-18T10:23:26;10.10;94.90
38784;DHT22;24531;45.502;12.238;2022-12-18T10:26:02;10.10;95.00
38784;DHT22;24531;45.502;12.238;2022-12-18T10:28:31;10.20;94.90
38784;DHT22;24531;45.502;12.238;2022-12-18T10:30:57;10.20;94.90
38784;DHT22;24531;45.502;12.238;2022-12-18T10:33:27;10.40;94.90
38784;DHT22;24531;45.502;12.238;2022-12-18T10:35:54;10.40;94.70
38784;DHT22;24531;45.502;12.238;2022-12-18T10:38:27;10.50;94.60
38784;DHT22;24531;45.502;12.238;2022-12-18T10:40:59;10.50;94.40
38784;DHT22;24531;45.502;12.238;2022-12-18T10:43:27;10.40;94.30
38784;DHT22;24531;45.502;12.238;2022-12-18T10:48:56;10.40;94.20
38784;DHT22;24531;45.502;12.238;2022-12-18T10:51:31;10.40;94.10
38784;DHT22;24531;45.502;12.238;2022-12-18T10:54:07;10.50;94.00
38784;DHT22;24531;45.502;12.238;2022-12-18T10:56:38;10.50;94.00
38784;DHT22;24531;45.502;12.238;2022-12-18T10:59:06;10.50;94.00
38784;DHT22;24531;45.502;12.238;2022-12-18T11:01:53;10.50;93.90
38784;DHT22;24531;45.502;12.238;2022-12-18T11:04:25;10.50;93.90
38784;DHT22;24531;45.502;12.238;2022-12-18T11:07:11;10.60;93.80
38784;DHT22;24531;45.502;12.238;2022-12-18T11:09:38;10.60;93.80
38784;DHT22;24531;45.502;12.238;2022-12-18T11:14:57;10.60;93.60
38784;DHT22;24531;45.502;12.238;2022-12-18T11:17:33;10.70;93.70
38784;DHT22;24531;45.502;12.238;2022-12-18T11:20:04;10.70;93.60
38784;DHT22;24531;45.502;12.238;2022-12-18T11:22:34;10.70;93.90
38784;DHT22;24531;45.502;12.238;2022-12-18T11:27:38;10.80;93.50
38784;DHT22;24531;45.502;12.238;2022-12-18T11:33:10;10.80;93.30
38784;DHT22;24531;45.502;12.238;2022-12-18T11:35:52;10.80;93.30
38784;DHT22;24531;45.502;12.238;2022-12-18T11:38:35;10.80;93.30
38784;DHT22;24531;45.502;12.238;2022-12-18T11:43:38;10.90;93.40
38784;DHT22;24531;45.502;12.238;2022-12-18T11:46:18;10.90;93.30
38784;DHT22;24531;45.502;12.238;2022-12-18T11:49:06;10.90;93.30
38784;DHT22;24531;45.502;12.238;2022-12-18T11:51:43;10.90;93.30
38784;DHT22;24531;45.502;12.238;2022-12-18T11:54:14;11.00;93.30
38784;DHT22;24531;45.502;12.238;2022-12-18T11:56:50;11.10;93.30
38784;DHT22;24531;45.502;12.238;2022-12-18T11:59:38;11.20;93.50
38784;DHT22;24531;45.502;12.238;2022-12-18T12:02:34;11.20;93.10
38784;DHT22;24531;45.502;12.238;2022-12-18T12:05:28;11.20;93.00
38784;DHT22;24531;45.502;12.238;2022-12-18T12:10:42;11.20;93.00
38784;DHT22;24531;45.502;12.238;2022-12-18T12:22:38;11.20;93.00
38784;DHT22;24531;45.502;12.238;2022-12-18T12:25:10;11.20;93.10
38784;DHT22;24531;45.502;12.238;2022-12-18T12:27:55;11.20;93.10
38784;DHT22;24531;45.502;12.238;2022-12-18T12:33:51;11.30;92.90
38784;DHT22;24531;45.502;12.238;2022-12-18T12:36:33;11.30;92.90
38784;DHT22;24531;45.502;12.238;2022-12-18T12:39:09;11.30;92.90
38784;DHT22;24531;45.502;12.238;2022-12-18T12:41:37;11.20;92.90
38784;DHT22;24531;45.502;12.238;2022-12-18T12:44:33;11.20;92.90
38784;DHT22;24531;45.502;12.238;2022-12-18T12:47:08;11.20;92.90
38784;DHT22;24531;45.502;12.238;2022-12-18T12:49:38;11.30;92.90
38784;DHT22;24531;45.502;12.238;2022-12-18T12:52:17;11.20;92.90
38784;DHT22;24531;45.502;12.238;2022-12-18T12:54:46;11.20;92.80
38784;DHT22;24531;45.502;12.238;2022-12-18T13:00:01;11.20;92.60
38784;DHT22;24531;45.502;12.238;2022-12-18T13:02:43;11.20;92.60
38784;DHT22;24531;45.502;12.238;2022-12-18T13:05:29;11.20;92.70
38784;DHT22;24531;45.502;12.238;2022-12-18T13:08:03;11.20;92.70
38784;DHT22;24531;45.502;12.238;2022-12-18T13:10:37;11.20;92.70
38784;DHT22;24531;45.502;12.238;2022-12-18T13:13:07;11.20;92.60
38784;DHT22;24531;45.502;12.238;2022-12-18T13:15:48;11.20;92.70
38784;DHT22;24531;45.502;12.238;2022-12-18T13:18:28;11.20;92.90
38784;DHT22;24531;45.502;12.238;2022-12-18T13:25:49;11.30;92.50
38784;DHT22;24531;45.502;12.238;2022-12-18T13:28:18;11.30;92.40
38784;DHT22;24531;45.502;12.238;2022-12-18T13:38:33;11.20;92.20
38784;DHT22;24531;45.502;12.238;2022-12-18T13:46:19;11.20;92.40
38784;DHT22;24531;45.502;12.238;2022-12-18T13:48:55;11.20;92.40
38784;DHT22;24531;45.502;12.238;2022-12-18T13:51:21;11.20;92.30
38784;DHT22;24531;45.502;12.238;2022-12-18T13:53:54;11.20;92.30
38784;DHT22;24531;45.502;12.238;2022-12-18T13:56:26;11.20;92.30
38784;DHT22;24531;45.502;12.238;2022-12-18T13:59:15;11.20;92.20
38784;DHT22;24531;45.502;12.238;2022-12-18T14:01:43;11.20;92.20
38784;DHT22;24531;45.502;12.238;2022-12-18T14:04:20;11.20;92.20
38784;DHT22;24531;45.502;12.238;2022-12-18T14:06:52;11.20;92.20
38784;DHT22;24531;45.502;12.238;2022-12-18T14:09:28;11.20;92.30
38784;DHT22;24531;45.502;12.238;2022-12-18T14:11:54;11.30;92.20
38784;DHT22;24531;45.502;12.238;2022-12-18T14:14:56;11.20;92.60
38784;DHT22;24531;45.502;12.238;2022-12-18T14:17:22;11.30;92.30
38784;DHT22;24531;45.502;12.238;2022-12-18T14:19:50;11.30;92.40
38784;DHT22;24531;45.502;12.238;2022-12-18T14:22:26;11.30;92.30
38784;DHT22;24531;45.502;12.238;2022-12-18T14:27:42;11.20;92.40
38784;DHT22;24531;45.502;12.238;2022-12-18T14:30:25;11.20;92.40
38784;DHT22;24531;45.502;12.238;2022-12-18T14:35:33;11.10;92.40
38784;DHT22;24531;45.502;12.238;2022-12-18T14:40:57;11.10;92.50
38784;DHT22;24531;45.502;12.238;2022-12-18T14:43:23;11.10;92.50
38784;DHT22;24531;45.502;12.238;2022-12-18T14:45:50;11.10;92.60
38784;DHT22;24531;45.502;12.238;2022-12-18T14:51:37;11.00;92.70
38784;DHT22;24531;45.502;12.238;2022-12-18T14:53:46;11.00;92.80
38784;DHT22;24531;45.502;12.238;2022-12-18T14:56:26;11.00;93.20
38784;DHT22;24531;45.502;12.238;2022-12-18T14:58:57;11.00;92.80
38784;DHT22;24531;45.502;12.238;2022-12-18T15:01:36;11.00;92.80
38784;DHT22;24531;45.502;12.238;2022-12-18T15:04:04;11.00;92.90
38784;DHT22;24531;45.502;12.238;2022-12-18T15:06:34;11.00;92.90
38784;DHT22;24531;45.502;12.238;2022-12-18T15:09:02;10.90;92.90
38784;DHT22;24531;45.502;12.238;2022-12-18T15:16:56;10.80;93.10
38784;DHT22;24531;45.502;12.238;2022-12-18T15:19:25;10.80;93.00
38784;DHT22;24531;45.502;12.238;2022-12-18T15:21:51;10.70;93.10
38784;DHT22;24531;45.502;12.238;2022-12-18T15:24:26;10.70;93.10
38784;DHT22;24531;45.502;12.238;2022-12-18T15:26:52;10.60;93.20
38784;DHT22;24531;45.502;12.238;2022-12-18T15:29:22;10.60;93.20
38784;DHT22;24531;45.502;12.238;2022-12-18T15:32:03;10.60;93.30
38784;DHT22;24531;45.502;12.238;2022-12-18T15:34:29;10.50;93.40
38784;DHT22;24531;45.502;12.238;2022-12-18T15:36:55;10.50;93.40
38784;DHT22;24531;45.502;12.238;2022-12-18T15:39:20;10.40;93.50
38784;DHT22;24531;45.502;12.238;2022-12-18T15:41:46;10.30;93.50
38784;DHT22;24531;45.502;12.238;2022-12-18T15:44:30;10.30;93.70
38784;DHT22;24531;45.502;12.238;2022-12-18T15:46:56;10.20;93.70
38784;DHT22;24531;45.502;12.238;2022-12-18T15:49:22;10.20;93.70
38784;DHT22;24531;45.502;12.238;2022-12-18T15:51:52;10.20;93.80
38784;DHT22;24531;45.502;12.238;2022-12-18T15:54:18;10.10;93.90
38784;DHT22;24531;45.502;12.238;2022-12-18T15:57:04;10.10;93.90
38784;DHT22;24531;45.502;12.238;2022-12-18T15:59:48;10.00;93.90
38784;DHT22;24531;45.502;12.238;2022-12-18T16:02:16;10.00;94.00
38784;DHT22;24531;45.502;12.238;2022-12-18T16:04:42;9.90;94.00
38784;DHT22;24531;45.502;12.238;2022-12-18T16:07:09;9.90;94.10
38784;DHT22;24531;45.502;12.238;2022-12-18T16:09:36;9.90;94.10
38784;DHT22;24531;45.502;12.238;2022-12-18T16:12:02;9.80;94.20
38784;DHT22;24531;45.502;12.238;2022-12-18T16:14:31;9.80;94.20
38784;DHT22;24531;45.502;12.238;2022-12-18T16:17:02;9.80;94.30
38784;DHT22;24531;45.502;12.238;2022-12-18T16:19:29;9.70;94.40
38784;DHT22;24531;45.502;12.238;2022-12-18T16:21:56;9.70;94.40
38784;DHT22;24531;45.502;12.238;2022-12-18T16:24:24;9.60;94.50
38784;DHT22;24531;45.502;12.238;2022-12-18T16:26:51;9.60;94.50
38784;DHT22;24531;45.502;12.238;2022-12-18T16:29:17;9.60;94.60
38784;DHT22;24531;45.502;12.238;2022-12-18T16:31:43;9.50;94.60
38784;DHT22;24531;45.502;12.238;2022-12-18T16:34:23;9.50;94.70
38784;DHT22;24531;45.502;12.238;2022-12-18T16:36:51;9.50;94.80
38784;DHT22;24531;45.502;12.238;2022-12-18T16:39:17;9.40;94.70
38784;DHT22;24531;45.502;12.238;2022-12-18T16:41:43;9.40;94.80
38784;DHT22;24531;45.502;12.238;2022-12-18T16:44:09;9.40;94.80
38784;DHT22;24531;45.502;12.238;2022-12-18T16:46:36;9.30;95.30
38784;DHT22;24531;45.502;12.238;2022-12-18T16:49:02;9.30;94.90
38784;DHT22;24531;45.502;12.238;2022-12-18T16:51:28;9.30;94.90
38784;DHT22;24531;45.502;12.238;2022-12-18T16:53:54;9.30;95.00
38784;DHT22;24531;45.502;12.238;2022-12-18T16:56:20;9.20;95.00
38784;DHT22;24531;45.502;12.238;2022-12-18T16:58:54;9.10;95.10
38784;DHT22;24531;45.502;12.238;2022-12-18T17:01:20;9.10;95.10
38784;DHT22;24531;45.502;12.238;2022-12-18T17:03:54;9.10;95.20
38784;DHT22;24531;45.502;12.238;2022-12-18T17:06:24;9.10;95.20
38784;DHT22;24531;45.502;12.238;2022-12-18T17:08:59;9.10;95.20
38784;DHT22;24531;45.502;12.238;2022-12-18T17:11:26;9.00;95.20
38784;DHT22;24531;45.502;12.238;2022-12-18T17:13:52;9.00;95.20
38784;DHT22;24531;45.502;12.238;2022-12-18T17:16:18;9.00;95.30
38784;DHT22;24531;45.502;12.238;2022-12-18T17:18:44;9.00;95.30
38784;DHT22;24531;45.502;12.238;2022-12-18T17:21:11;9.00;95.40
38784;DHT22;24531;45.502;12.238;2022-12-18T17:23:39;9.00;95.40
38784;DHT22;24531;45.502;12.238;2022-12-18T17:26:05;9.00;95.40
38784;DHT22;24531;45.502;12.238;2022-12-18T17:28:33;8.90;95.40
38784;DHT22;24531;45.502;12.238;2022-12-18T17:30:59;8.90;95.40
38784;DHT22;24531;45.502;12.238;2022-12-18T17:33:25;8.90;95.50
38784;DHT22;24531;45.502;12.238;2022-12-18T17:35:51;8.80;95.50
38784;DHT22;24531;45.502;12.238;2022-12-18T17:38:17;8.80;95.60
38784;DHT22;24531;45.502;12.238;2022-12-18T17:40:43;8.90;95.70
38784;DHT22;24531;45.502;12.238;2022-12-18T17:43:09;8.80;95.60
38784;DHT22;24531;45.502;12.238;2022-12-18T17:45:36;8.90;95.60
38784;DHT22;24531;45.502;12.238;2022-12-18T17:48:03;8.80;95.60
38784;DHT22;24531;45.502;12.238;2022-12-18T17:50:31;8.80;95.60